sensor_id;sensor_type;location;lat;lon;timestamp;P1;durP1;ratioP1;P2;durP2;ratioP2
36855;SDS011;22788;51.434;6.786;2022-07-17T00:02:05;4.70;;;1.83;;
36855;SDS011;22788;51.434;6.786;2022-07-17T00:04:34;2.55;;;1.30;;
36855;SDS011;22788;51.434;6.786;2022-07-17T00:07:01;3.58;;;1.48;;
36855;SDS011;22788;51.434;6.786;2022-07-17T00:09:28;2.65;;;1.30;;
36855;SDS011;22788;51.434;6.786;2022-07-17T00:11:54;4.50;;;1.63;;
36855;SDS011;22788;51.434;6.786;2022-07-17T00:14:20;2.47;;;1.50;;
36855;SDS011;22788;51.434;6.786;2022-07-17T00:16:46;3.38;;;1.50;;
36855;SDS011;22788;51.434;6.786;2022-07-17T00:19:12;2.35;;;1.30;;
36855;SDS011;22788;51.434;6.786;2022-07-17T00:21:38;1.67;;;1.27;;
36855;SDS011;22788;51.434;6.786;2022-07-17T00:24:06;2.25;;;1.35;;
36855;SDS011;22788;51.434;6.786;2022-07-17T00:26:32;2.45;;;1.50;;
36855;SDS011;22788;51.434;6.786;2022-07-17T00:28:58;2.85;;;1.40;;
36855;SDS011;22788;51.434;6.786;2022-07-17T00:31:25;2.80;;;1.50;;
36855;SDS011;22788;51.434;6.786;2022-07-17T00:33:51;2.95;;;1.30;;
36855;SDS011;22788;51.434;6.786;2022-07-17T00:36:17;1.85;;;1.00;;
36855;SDS011;22788;51.434;6.786;2022-07-17T00:38:43;2.95;;;1.30;;
36855;SDS011;22788;51.434;6.786;2022-07-17T00:41:17;6.15;;;1.58;;
36855;SDS011;22788;51.434;6.786;2022-07-17T00:43:43;3.72;;;1.52;;
36855;SDS011;22788;51.434;6.786;2022-07-17T00:46:09;5.47;;;1.52;;
36855;SDS011;22788;51.434;6.786;2022-07-17T00:48:36;3.78;;;1.30;;
36855;SDS011;22788;51.434;6.786;2022-07-17T00:51:02;3.83;;;1.77;;
36855;SDS011;22788;51.434;6.786;2022-07-17T00:53:28;5.70;;;1.65;;
36855;SDS011;22788;51.434;6.786;2022-07-17T00:55:57;3.42;;;1.30;;
36855;SDS011;22788;51.434;6.786;2022-07-17T00:58:27;2.65;;;1.67;;
36855;SDS011;22788;51.434;6.786;2022-07-17T01:00:55;1.70;;;1.30;;
36855;SDS011;22788;51.434;6.786;2022-07-17T01:03:22;3.22;;;1.50;;
36855;SDS011;22788;51.434;6.786;2022-07-17T01:05:49;3.65;;;1.35;;
36855;SDS011;22788;51.434;6.786;2022-07-17T01:08:16;2.78;;;1.20;;
36855;SDS011;22788;51.434;6.786;2022-07-17T01:10:42;4.30;;;1.40;;
36855;SDS011;22788;51.434;6.786;2022-07-17T01:13:08;2.22;;;1.30;;
36855;SDS011;22788;51.434;6.786;2022-07-17T01:15:37;3.63;;;1.40;;
36855;SDS011;22788;51.434;6.786;2022-07-17T01:18:05;3.97;;;1.20;;
36855;SDS011;22788;51.434;6.786;2022-07-17T01:20:31;2.67;;;1.40;;
36855;SDS011;22788;51.434;6.786;2022-07-17T01:22:59;2.05;;;1.20;;
36855;SDS011;22788;51.434;6.786;2022-07-17T01:25:25;7.43;;;1.48;;
36855;SDS011;22788;51.434;6.786;2022-07-17T01:27:51;2.25;;;1.58;;
36855;SDS011;22788;51.434;6.786;2022-07-17T01:30:17;2.88;;;1.20;;
36855;SDS011;22788;51.434;6.786;2022-07-17T01:32:44;3.65;;;1.33;;
36855;SDS011;22788;51.434;6.786;2022-07-17T01:35:11;2.35;;;1.08;;
36855;SDS011;22788;51.434;6.786;2022-07-17T01:37:40;1.75;;;1.30;;
36855;SDS011;22788;51.434;6.786;2022-07-17T01:40:10;3.72;;;1.55;;
36855;SDS011;22788;51.434;6.786;2022-07-17T01:42:36;2.97;;;1.33;;
36855;SDS011;22788;51.434;6.786;2022-07-17T01:45:03;2.10;;;1.30;;
36855;SDS011;22788;51.434;6.786;2022-07-17T01:47:29;2.88;;;1.92;;
36855;SDS011;22788;51.434;6.786;2022-07-17T01:49:56;2.25;;;1.35;;
36855;SDS011;22788;51.434;6.786;2022-07-17T01:52:23;2.17;;;1.20;;
36855;SDS011;22788;51.434;6.786;2022-07-17T01:54:51;2.28;;;1.33;;
36855;SDS011;22788;51.434;6.786;2022-07-17T01:57:18;3.30;;;1.73;;
36855;SDS011;22788;51.434;6.786;2022-07-17T01:59:45;3.28;;;1.33;;
36855;SDS011;22788;51.434;6.786;2022-07-17T02:02:11;3.00;;;1.52;;
36855;SDS011;22788;51.434;6.786;2022-07-17T02:04:38;3.38;;;1.58;;
36855;SDS011;22788;51.434;6.786;2022-07-17T02:07:05;3.88;;;1.50;;
36855;SDS011;22788;51.434;6.786;2022-07-17T02:09:31;2.58;;;1.52;;
36855;SDS011;22788;51.434;6.786;2022-07-17T02:11:57;1.48;;;1.33;;
36855;SDS011;22788;51.434;6.786;2022-07-17T02:14:24;2.20;;;1.38;;
36855;SDS011;22788;51.434;6.786;2022-07-17T02:16:50;2.45;;;1.50;;
36855;SDS011;22788;51.434;6.786;2022-07-17T02:19:17;2.53;;;1.50;;
36855;SDS011;22788;51.434;6.786;2022-07-17T02:21:43;1.88;;;1.42;;
36855;SDS011;22788;51.434;6.786;2022-07-17T02:24:09;2.90;;;1.55;;
36855;SDS011;22788;51.434;6.786;2022-07-17T02:26:35;2.00;;;1.58;;
36855;SDS011;22788;51.434;6.786;2022-07-17T02:29:01;5.15;;;1.60;;
36855;SDS011;22788;51.434;6.786;2022-07-17T02:31:29;2.42;;;1.55;;
36855;SDS011;22788;51.434;6.786;2022-07-17T02:33:55;2.78;;;1.38;;
36855;SDS011;22788;51.434;6.786;2022-07-17T02:36:21;3.85;;;1.65;;
36855;SDS011;22788;51.434;6.786;2022-07-17T02:38:48;4.80;;;1.63;;
36855;SDS011;22788;51.434;6.786;2022-07-17T02:41:14;2.55;;;1.48;;
36855;SDS011;22788;51.434;6.786;2022-07-17T02:43:40;2.13;;;1.30;;
36855;SDS011;22788;51.434;6.786;2022-07-17T02:46:07;2.58;;;1.80;;
36855;SDS011;22788;51.434;6.786;2022-07-17T02:48:34;7.85;;;1.90;;
36855;SDS011;22788;51.434;6.786;2022-07-17T02:51:00;1.95;;;1.55;;
36855;SDS011;22788;51.434;6.786;2022-07-17T02:53:27;3.55;;;1.70;;
36855;SDS011;22788;51.434;6.786;2022-07-17T02:55:53;2.42;;;1.55;;
36855;SDS011;22788;51.434;6.786;2022-07-17T02:58:19;2.15;;;1.30;;
36855;SDS011;22788;51.434;6.786;2022-07-17T03:00:45;2.92;;;1.58;;
36855;SDS011;22788;51.434;6.786;2022-07-17T03:03:11;5.15;;;1.52;;
36855;SDS011;22788;51.434;6.786;2022-07-17T03:05:38;4.03;;;1.67;;
36855;SDS011;22788;51.434;6.786;2022-07-17T03:08:04;3.20;;;1.48;;
36855;SDS011;22788;51.434;6.786;2022-07-17T03:10:31;2.47;;;1.88;;
36855;SDS011;22788;51.434;6.786;2022-07-17T03:12:57;2.40;;;1.33;;
36855;SDS011;22788;51.434;6.786;2022-07-17T03:15:23;2.03;;;1.13;;
36855;SDS011;22788;51.434;6.786;2022-07-17T03:17:49;3.95;;;1.58;;
36855;SDS011;22788;51.434;6.786;2022-07-17T03:20:15;2.85;;;1.70;;
36855;SDS011;22788;51.434;6.786;2022-07-17T03:22:43;3.60;;;1.55;;
36855;SDS011;22788;51.434;6.786;2022-07-17T03:25:09;2.45;;;1.40;;
36855;SDS011;22788;51.434;6.786;2022-07-17T03:27:35;3.17;;;1.73;;
36855;SDS011;22788;51.434;6.786;2022-07-17T03:30:01;2.45;;;1.77;;
36855;SDS011;22788;51.434;6.786;2022-07-17T03:32:28;3.53;;;1.80;;
36855;SDS011;22788;51.434;6.786;2022-07-17T03:34:54;5.43;;;1.98;;
36855;SDS011;22788;51.434;6.786;2022-07-17T03:37:20;4.35;;;1.70;;
36855;SDS011;22788;51.434;6.786;2022-07-17T03:39:47;2.38;;;1.40;;
36855;SDS011;22788;51.434;6.786;2022-07-17T03:42:13;2.75;;;1.40;;
36855;SDS011;22788;51.434;6.786;2022-07-17T03:44:39;4.72;;;1.55;;
36855;SDS011;22788;51.434;6.786;2022-07-17T03:47:06;3.72;;;1.73;;
36855;SDS011;22788;51.434;6.786;2022-07-17T03:49:32;2.40;;;1.42;;
36855;SDS011;22788;51.434;6.786;2022-07-17T03:51:58;2.45;;;1.55;;
36855;SDS011;22788;51.434;6.786;2022-07-17T03:54:24;1.55;;;1.20;;
36855;SDS011;22788;51.434;6.786;2022-07-17T03:56:51;2.70;;;1.40;;
36855;SDS011;22788;51.434;6.786;2022-07-17T03:59:17;4.35;;;1.77;;
36855;SDS011;22788;51.434;6.786;2022-07-17T04:01:43;3.35;;;1.40;;
36855;SDS011;22788;51.434;6.786;2022-07-17T04:04:09;2.08;;;1.40;;
36855;SDS011;22788;51.434;6.786;2022-07-17T04:06:35;1.85;;;1.58;;
36855;SDS011;22788;51.434;6.786;2022-07-17T04:09:02;2.13;;;1.48;;
36855;SDS011;22788;51.434;6.786;2022-07-17T04:11:29;2.05;;;1.20;;
36855;SDS011;22788;51.434;6.786;2022-07-17T04:13:56;2.90;;;1.45;;
36855;SDS011;22788;51.434;6.786;2022-07-17T04:16:22;2.85;;;1.55;;
36855;SDS011;22788;51.434;6.786;2022-07-17T04:18:48;2.97;;;1.50;;
36855;SDS011;22788;51.434;6.786;2022-07-17T04:21:14;2.15;;;1.42;;
36855;SDS011;22788;51.434;6.786;2022-07-17T04:23:40;4.05;;;1.88;;
36855;SDS011;22788;51.434;6.786;2022-07-17T04:26:07;3.42;;;1.70;;
36855;SDS011;22788;51.434;6.786;2022-07-17T04:28:33;4.10;;;1.80;;
36855;SDS011;22788;51.434;6.786;2022-07-17T04:31:01;2.10;;;1.48;;
36855;SDS011;22788;51.434;6.786;2022-07-17T04:33:27;3.15;;;1.70;;
36855;SDS011;22788;51.434;6.786;2022-07-17T04:35:53;2.65;;;1.55;;
36855;SDS011;22788;51.434;6.786;2022-07-17T04:38:20;3.28;;;1.40;;
36855;SDS011;22788;51.434;6.786;2022-07-17T04:40:46;6.13;;;1.90;;
36855;SDS011;22788;51.434;6.786;2022-07-17T04:43:12;3.95;;;1.75;;
36855;SDS011;22788;51.434;6.786;2022-07-17T04:45:38;2.30;;;1.55;;
36855;SDS011;22788;51.434;6.786;2022-07-17T04:48:06;3.42;;;1.65;;
36855;SDS011;22788;51.434;6.786;2022-07-17T04:50:32;4.13;;;1.95;;
36855;SDS011;22788;51.434;6.786;2022-07-17T04:52:58;2.10;;;1.60;;
36855;SDS011;22788;51.434;6.786;2022-07-17T04:55:24;4.03;;;1.83;;
36855;SDS011;22788;51.434;6.786;2022-07-17T04:57:50;3.47;;;1.67;;
36855;SDS011;22788;51.434;6.786;2022-07-17T05:00:16;2.80;;;1.50;;
36855;SDS011;22788;51.434;6.786;2022-07-17T05:02:43;3.67;;;1.60;;
36855;SDS011;22788;51.434;6.786;2022-07-17T05:05:11;4.15;;;1.50;;
36855;SDS011;22788;51.434;6.786;2022-07-17T05:07:37;2.63;;;1.30;;
36855;SDS011;22788;51.434;6.786;2022-07-17T05:10:03;2.13;;;1.58;;
36855;SDS011;22788;51.434;6.786;2022-07-17T05:12:30;3.28;;;1.85;;
36855;SDS011;22788;51.434;6.786;2022-07-17T05:14:56;2.58;;;1.55;;
36855;SDS011;22788;51.434;6.786;2022-07-17T05:17:22;5.38;;;1.63;;
36855;SDS011;22788;51.434;6.786;2022-07-17T05:19:48;2.53;;;1.42;;
36855;SDS011;22788;51.434;6.786;2022-07-17T05:22:16;5.50;;;1.95;;
36855;SDS011;22788;51.434;6.786;2022-07-17T05:24:42;6.13;;;1.85;;
36855;SDS011;22788;51.434;6.786;2022-07-17T05:27:08;3.00;;;1.70;;
36855;SDS011;22788;51.434;6.786;2022-07-17T05:29:34;5.05;;;1.75;;
36855;SDS011;22788;51.434;6.786;2022-07-17T05:32:00;4.95;;;1.65;;
36855;SDS011;22788;51.434;6.786;2022-07-17T05:34:26;2.95;;;1.60;;
36855;SDS011;22788;51.434;6.786;2022-07-17T05:36:52;4.95;;;1.67;;
36855;SDS011;22788;51.434;6.786;2022-07-17T05:39:19;2.00;;;1.50;;
36855;SDS011;22788;51.434;6.786;2022-07-17T05:41:45;3.10;;;1.60;;
36855;SDS011;22788;51.434;6.786;2022-07-17T05:44:11;3.38;;;1.45;;
36855;SDS011;22788;51.434;6.786;2022-07-17T05:46:38;4.13;;;1.85;;
36855;SDS011;22788;51.434;6.786;2022-07-17T05:49:04;5.95;;;1.80;;
36855;SDS011;22788;51.434;6.786;2022-07-17T05:51:30;3.25;;;1.60;;
36855;SDS011;22788;51.434;6.786;2022-07-17T05:53:56;2.97;;;1.40;;
36855;SDS011;22788;51.434;6.786;2022-07-17T05:56:23;3.83;;;1.90;;
36855;SDS011;22788;51.434;6.786;2022-07-17T05:58:49;3.53;;;1.65;;
36855;SDS011;22788;51.434;6.786;2022-07-17T06:01:15;3.38;;;1.67;;
36855;SDS011;22788;51.434;6.786;2022-07-17T06:03:41;3.83;;;1.50;;
36855;SDS011;22788;51.434;6.786;2022-07-17T06:06:07;2.85;;;2.20;;
36855;SDS011;22788;51.434;6.786;2022-07-17T06:08:34;2.95;;;1.55;;
36855;SDS011;22788;51.434;6.786;2022-07-17T06:11:00;4.65;;;2.03;;
36855;SDS011;22788;51.434;6.786;2022-07-17T06:13:27;1.67;;;1.40;;
36855;SDS011;22788;51.434;6.786;2022-07-17T06:15:53;2.65;;;1.90;;
36855;SDS011;22788;51.434;6.786;2022-07-17T06:18:19;1.98;;;1.60;;
36855;SDS011;22788;51.434;6.786;2022-07-17T06:20:45;2.15;;;1.50;;
36855;SDS011;22788;51.434;6.786;2022-07-17T06:23:11;3.08;;;1.85;;
36855;SDS011;22788;51.434;6.786;2022-07-17T06:25:37;1.85;;;1.40;;
36855;SDS011;22788;51.434;6.786;2022-07-17T06:28:03;4.15;;;1.75;;
36855;SDS011;22788;51.434;6.786;2022-07-17T06:30:31;3.78;;;1.92;;
36855;SDS011;22788;51.434;6.786;2022-07-17T06:32:57;3.28;;;1.73;;
36855;SDS011;22788;51.434;6.786;2022-07-17T06:35:23;4.95;;;1.48;;
36855;SDS011;22788;51.434;6.786;2022-07-17T06:37:49;4.50;;;2.17;;
36855;SDS011;22788;51.434;6.786;2022-07-17T06:40:15;2.00;;;1.50;;
36855;SDS011;22788;51.434;6.786;2022-07-17T06:42:41;5.32;;;1.65;;
36855;SDS011;22788;51.434;6.786;2022-07-17T06:45:08;2.83;;;1.40;;
36855;SDS011;22788;51.434;6.786;2022-07-17T06:47:38;2.78;;;1.42;;
36855;SDS011;22788;51.434;6.786;2022-07-17T06:50:05;4.75;;;1.60;;
36855;SDS011;22788;51.434;6.786;2022-07-17T06:52:32;3.42;;;1.75;;
36855;SDS011;22788;51.434;6.786;2022-07-17T06:54:58;4.85;;;1.73;;
36855;SDS011;22788;51.434;6.786;2022-07-17T06:57:24;2.10;;;1.30;;
36855;SDS011;22788;51.434;6.786;2022-07-17T06:59:50;3.28;;;1.70;;
36855;SDS011;22788;51.434;6.786;2022-07-17T07:02:16;3.53;;;1.63;;
36855;SDS011;22788;51.434;6.786;2022-07-17T07:04:43;4.05;;;1.52;;
36855;SDS011;22788;51.434;6.786;2022-07-17T07:07:10;3.83;;;1.35;;
36855;SDS011;22788;51.434;6.786;2022-07-17T07:09:36;5.38;;;1.55;;
36855;SDS011;22788;51.434;6.786;2022-07-17T07:12:02;1.98;;;1.45;;
36855;SDS011;22788;51.434;6.786;2022-07-17T07:14:29;1.98;;;1.30;;
36855;SDS011;22788;51.434;6.786;2022-07-17T07:16:55;3.60;;;1.70;;
36855;SDS011;22788;51.434;6.786;2022-07-17T07:19:21;2.30;;;1.42;;
36855;SDS011;22788;51.434;6.786;2022-07-17T07:21:48;2.47;;;1.50;;
36855;SDS011;22788;51.434;6.786;2022-07-17T07:24:14;3.35;;;1.20;;
36855;SDS011;22788;51.434;6.786;2022-07-17T07:26:41;3.83;;;1.52;;
36855;SDS011;22788;51.434;6.786;2022-07-17T07:29:07;2.40;;;1.45;;
36855;SDS011;22788;51.434;6.786;2022-07-17T07:31:33;3.08;;;1.38;;
36855;SDS011;22788;51.434;6.786;2022-07-17T07:33:59;2.92;;;1.30;;
36855;SDS011;22788;51.434;6.786;2022-07-17T07:36:25;2.35;;;1.17;;
36855;SDS011;22788;51.434;6.786;2022-07-17T07:38:52;2.97;;;1.50;;
36855;SDS011;22788;51.434;6.786;2022-07-17T07:41:19;3.15;;;1.35;;
36855;SDS011;22788;51.434;6.786;2022-07-17T07:43:45;1.38;;;1.20;;
36855;SDS011;22788;51.434;6.786;2022-07-17T07:46:11;3.90;;;1.63;;
36855;SDS011;22788;51.434;6.786;2022-07-17T07:48:37;3.20;;;1.45;;
36855;SDS011;22788;51.434;6.786;2022-07-17T07:51:03;1.63;;;1.25;;
36855;SDS011;22788;51.434;6.786;2022-07-17T07:53:29;1.52;;;1.40;;
36855;SDS011;22788;51.434;6.786;2022-07-17T07:55:56;3.30;;;2.00;;
36855;SDS011;22788;51.434;6.786;2022-07-17T07:58:22;2.97;;;1.60;;
36855;SDS011;22788;51.434;6.786;2022-07-17T08:00:48;2.25;;;1.50;;
36855;SDS011;22788;51.434;6.786;2022-07-17T08:03:15;1.80;;;1.60;;
36855;SDS011;22788;51.434;6.786;2022-07-17T08:05:41;4.68;;;1.40;;
36855;SDS011;22788;51.434;6.786;2022-07-17T08:08:07;2.92;;;1.17;;
36855;SDS011;22788;51.434;6.786;2022-07-17T08:10:33;2.10;;;1.40;;
36855;SDS011;22788;51.434;6.786;2022-07-17T08:13:01;1.90;;;1.70;;
36855;SDS011;22788;51.434;6.786;2022-07-17T08:15:27;2.72;;;1.70;;
36855;SDS011;22788;51.434;6.786;2022-07-17T08:17:53;1.83;;;1.10;;
36855;SDS011;22788;51.434;6.786;2022-07-17T08:20:20;3.35;;;1.63;;
36855;SDS011;22788;51.434;6.786;2022-07-17T08:22:47;3.20;;;1.52;;
36855;SDS011;22788;51.434;6.786;2022-07-17T08:25:14;4.32;;;1.50;;
36855;SDS011;22788;51.434;6.786;2022-07-17T08:27:41;5.63;;;2.10;;
36855;SDS011;22788;51.434;6.786;2022-07-17T08:30:11;7.55;;;2.13;;
36855;SDS011;22788;51.434;6.786;2022-07-17T08:32:38;4.53;;;1.98;;
36855;SDS011;22788;51.434;6.786;2022-07-17T08:35:05;2.90;;;1.33;;
36855;SDS011;22788;51.434;6.786;2022-07-17T08:37:41;3.55;;;1.85;;
36855;SDS011;22788;51.434;6.786;2022-07-17T08:40:10;5.10;;;2.00;;
36855;SDS011;22788;51.434;6.786;2022-07-17T08:42:41;7.90;;;2.15;;
36855;SDS011;22788;51.434;6.786;2022-07-17T08:45:07;7.57;;;2.42;;
36855;SDS011;22788;51.434;6.786;2022-07-17T08:47:36;5.15;;;2.35;;
36855;SDS011;22788;51.434;6.786;2022-07-17T08:50:04;6.13;;;2.33;;
36855;SDS011;22788;51.434;6.786;2022-07-17T08:52:30;3.10;;;1.60;;
36855;SDS011;22788;51.434;6.786;2022-07-17T08:54:57;8.77;;;2.10;;
36855;SDS011;22788;51.434;6.786;2022-07-17T08:57:23;5.25;;;1.98;;
36855;SDS011;22788;51.434;6.786;2022-07-17T08:59:49;5.03;;;2.17;;
36855;SDS011;22788;51.434;6.786;2022-07-17T09:02:16;4.32;;;2.08;;
36855;SDS011;22788;51.434;6.786;2022-07-17T09:04:42;5.15;;;2.15;;
36855;SDS011;22788;51.434;6.786;2022-07-17T09:07:18;5.35;;;2.30;;
36855;SDS011;22788;51.434;6.786;2022-07-17T09:09:49;3.67;;;2.10;;
36855;SDS011;22788;51.434;6.786;2022-07-17T09:12:15;3.58;;;1.80;;
36855;SDS011;22788;51.434;6.786;2022-07-17T09:14:42;5.38;;;1.90;;
36855;SDS011;22788;51.434;6.786;2022-07-17T09:17:08;4.85;;;2.17;;
36855;SDS011;22788;51.434;6.786;2022-07-17T09:19:39;5.57;;;1.90;;
36855;SDS011;22788;51.434;6.786;2022-07-17T09:22:07;3.67;;;1.92;;
36855;SDS011;22788;51.434;6.786;2022-07-17T09:24:39;3.65;;;1.80;;
36855;SDS011;22788;51.434;6.786;2022-07-17T09:27:13;5.90;;;2.28;;
36855;SDS011;22788;51.434;6.786;2022-07-17T09:29:55;6.82;;;1.95;;
36855;SDS011;22788;51.434;6.786;2022-07-17T09:32:23;7.88;;;2.10;;
36855;SDS011;22788;51.434;6.786;2022-07-17T09:34:52;6.10;;;2.47;;
36855;SDS011;22788;51.434;6.786;2022-07-17T09:37:20;10.40;;;3.22;;
36855;SDS011;22788;51.434;6.786;2022-07-17T09:39:47;4.20;;;2.33;;
36855;SDS011;22788;51.434;6.786;2022-07-17T09:42:21;7.35;;;2.20;;
36855;SDS011;22788;51.434;6.786;2022-07-17T09:44:53;4.35;;;2.28;;
36855;SDS011;22788;51.434;6.786;2022-07-17T09:47:21;6.25;;;2.22;;
36855;SDS011;22788;51.434;6.786;2022-07-17T09:49:48;4.00;;;1.83;;
36855;SDS011;22788;51.434;6.786;2022-07-17T09:52:16;5.43;;;1.92;;
36855;SDS011;22788;51.434;6.786;2022-07-17T09:54:43;5.80;;;2.03;;
36855;SDS011;22788;51.434;6.786;2022-07-17T09:57:11;4.28;;;2.00;;
36855;SDS011;22788;51.434;6.786;2022-07-17T09:59:39;4.05;;;1.88;;
36855;SDS011;22788;51.434;6.786;2022-07-17T10:02:06;3.85;;;1.95;;
36855;SDS011;22788;51.434;6.786;2022-07-17T10:04:32;6.28;;;2.65;;
36855;SDS011;22788;51.434;6.786;2022-07-17T10:06:59;5.05;;;2.13;;
36855;SDS011;22788;51.434;6.786;2022-07-17T10:09:26;2.95;;;2.05;;
36855;SDS011;22788;51.434;6.786;2022-07-17T10:11:52;6.07;;;2.45;;
36855;SDS011;22788;51.434;6.786;2022-07-17T10:14:19;5.80;;;1.90;;
36855;SDS011;22788;51.434;6.786;2022-07-17T10:16:46;7.53;;;2.45;;
36855;SDS011;22788;51.434;6.786;2022-07-17T10:19:15;5.38;;;2.10;;
36855;SDS011;22788;51.434;6.786;2022-07-17T10:21:51;4.15;;;2.05;;
36855;SDS011;22788;51.434;6.786;2022-07-17T10:24:18;6.13;;;2.17;;
36855;SDS011;22788;51.434;6.786;2022-07-17T10:26:46;3.78;;;2.03;;
36855;SDS011;22788;51.434;6.786;2022-07-17T10:29:25;6.30;;;2.33;;
36855;SDS011;22788;51.434;6.786;2022-07-17T10:31:56;6.88;;;2.88;;
36855;SDS011;22788;51.434;6.786;2022-07-17T10:34:36;6.22;;;2.30;;
36855;SDS011;22788;51.434;6.786;2022-07-17T10:37:13;8.07;;;3.00;;
36855;SDS011;22788;51.434;6.786;2022-07-17T10:39:40;4.78;;;2.72;;
36855;SDS011;22788;51.434;6.786;2022-07-17T10:42:17;7.32;;;2.83;;
36855;SDS011;22788;51.434;6.786;2022-07-17T10:45:06;7.20;;;2.60;;
36855;SDS011;22788;51.434;6.786;2022-07-17T10:47:41;4.72;;;2.67;;
36855;SDS011;22788;51.434;6.786;2022-07-17T10:50:12;9.43;;;2.78;;
36855;SDS011;22788;51.434;6.786;2022-07-17T10:52:41;5.78;;;2.40;;
36855;SDS011;22788;51.434;6.786;2022-07-17T10:55:17;9.60;;;2.92;;
36855;SDS011;22788;51.434;6.786;2022-07-17T10:57:46;4.40;;;2.55;;
36855;SDS011;22788;51.434;6.786;2022-07-17T11:00:12;6.80;;;2.67;;
36855;SDS011;22788;51.434;6.786;2022-07-17T11:02:38;9.75;;;2.70;;
36855;SDS011;22788;51.434;6.786;2022-07-17T11:05:05;7.72;;;2.75;;
36855;SDS011;22788;51.434;6.786;2022-07-17T11:07:31;7.25;;;2.60;;
36855;SDS011;22788;51.434;6.786;2022-07-17T11:09:57;6.43;;;2.53;;
36855;SDS011;22788;51.434;6.786;2022-07-17T11:12:29;7.40;;;2.25;;
36855;SDS011;22788;51.434;6.786;2022-07-17T11:15:00;5.32;;;2.22;;
36855;SDS011;22788;51.434;6.786;2022-07-17T11:17:27;12.57;;;2.47;;
36855;SDS011;22788;51.434;6.786;2022-07-17T11:19:53;6.53;;;2.38;;
36855;SDS011;22788;51.434;6.786;2022-07-17T11:22:21;5.57;;;2.47;;
36855;SDS011;22788;51.434;6.786;2022-07-17T11:24:48;6.88;;;2.53;;
36855;SDS011;22788;51.434;6.786;2022-07-17T11:27:18;5.78;;;2.28;;
36855;SDS011;22788;51.434;6.786;2022-07-17T11:29:46;8.82;;;2.88;;
36855;SDS011;22788;51.434;6.786;2022-07-17T11:32:14;10.25;;;2.25;;
36855;SDS011;22788;51.434;6.786;2022-07-17T11:34:40;6.53;;;2.40;;
36855;SDS011;22788;51.434;6.786;2022-07-17T11:37:07;6.55;;;2.50;;
36855;SDS011;22788;51.434;6.786;2022-07-17T11:39:37;8.93;;;2.22;;
36855;SDS011;22788;51.434;6.786;2022-07-17T11:42:03;7.25;;;2.90;;
36855;SDS011;22788;51.434;6.786;2022-07-17T11:44:33;9.15;;;2.60;;
36855;SDS011;22788;51.434;6.786;2022-07-17T11:46:59;6.07;;;2.47;;
36855;SDS011;22788;51.434;6.786;2022-07-17T11:49:28;10.52;;;3.13;;
36855;SDS011;22788;51.434;6.786;2022-07-17T11:51:55;6.38;;;2.33;;
36855;SDS011;22788;51.434;6.786;2022-07-17T11:54:22;11.48;;;2.78;;
36855;SDS011;22788;51.434;6.786;2022-07-17T11:56:51;8.90;;;2.50;;
36855;SDS011;22788;51.434;6.786;2022-07-17T11:59:23;11.68;;;2.60;;
36855;SDS011;22788;51.434;6.786;2022-07-17T12:01:50;4.80;;;2.30;;
36855;SDS011;22788;51.434;6.786;2022-07-17T12:04:16;4.22;;;1.77;;
36855;SDS011;22788;51.434;6.786;2022-07-17T12:06:45;7.25;;;2.58;;
36855;SDS011;22788;51.434;6.786;2022-07-17T12:09:11;6.63;;;2.63;;
36855;SDS011;22788;51.434;6.786;2022-07-17T12:11:47;9.10;;;2.65;;
36855;SDS011;22788;51.434;6.786;2022-07-17T12:14:15;6.72;;;2.58;;
36855;SDS011;22788;51.434;6.786;2022-07-17T12:16:41;7.85;;;2.72;;
36855;SDS011;22788;51.434;6.786;2022-07-17T12:19:08;5.28;;;2.70;;
36855;SDS011;22788;51.434;6.786;2022-07-17T12:22:04;5.47;;;2.25;;
36855;SDS011;22788;51.434;6.786;2022-07-17T12:24:32;5.50;;;2.50;;
36855;SDS011;22788;51.434;6.786;2022-07-17T12:27:02;8.25;;;2.65;;
36855;SDS011;22788;51.434;6.786;2022-07-17T12:29:30;8.00;;;2.70;;
36855;SDS011;22788;51.434;6.786;2022-07-17T12:32:00;4.82;;;2.35;;
36855;SDS011;22788;51.434;6.786;2022-07-17T12:34:31;4.28;;;2.15;;
36855;SDS011;22788;51.434;6.786;2022-07-17T12:36:59;6.22;;;2.53;;
36855;SDS011;22788;51.434;6.786;2022-07-17T12:39:25;5.57;;;2.40;;
36855;SDS011;22788;51.434;6.786;2022-07-17T12:41:51;6.82;;;2.60;;
36855;SDS011;22788;51.434;6.786;2022-07-17T12:44:17;7.15;;;2.50;;
36855;SDS011;22788;51.434;6.786;2022-07-17T12:46:43;10.90;;;2.67;;
36855;SDS011;22788;51.434;6.786;2022-07-17T12:49:09;5.28;;;2.65;;
36855;SDS011;22788;51.434;6.786;2022-07-17T12:51:36;6.22;;;2.83;;
36855;SDS011;22788;51.434;6.786;2022-07-17T12:54:03;5.60;;;2.42;;
36855;SDS011;22788;51.434;6.786;2022-07-17T12:56:29;7.22;;;2.63;;
36855;SDS011;22788;51.434;6.786;2022-07-17T12:58:55;6.72;;;2.70;;
36855;SDS011;22788;51.434;6.786;2022-07-17T13:01:21;7.75;;;2.70;;
36855;SDS011;22788;51.434;6.786;2022-07-17T13:03:47;7.78;;;2.63;;
36855;SDS011;22788;51.434;6.786;2022-07-17T13:06:13;6.25;;;2.25;;
36855;SDS011;22788;51.434;6.786;2022-07-17T13:08:39;8.57;;;2.67;;
36855;SDS011;22788;51.434;6.786;2022-07-17T13:11:07;7.15;;;2.92;;
36855;SDS011;22788;51.434;6.786;2022-07-17T13:13:33;5.18;;;2.20;;
36855;SDS011;22788;51.434;6.786;2022-07-17T13:15:59;5.70;;;2.45;;
36855;SDS011;22788;51.434;6.786;2022-07-17T13:18:25;8.30;;;3.15;;
36855;SDS011;22788;51.434;6.786;2022-07-17T13:20:51;10.48;;;2.58;;
36855;SDS011;22788;51.434;6.786;2022-07-17T13:23:17;4.25;;;2.03;;
36855;SDS011;22788;51.434;6.786;2022-07-17T13:25:43;6.25;;;3.05;;
36855;SDS011;22788;51.434;6.786;2022-07-17T13:28:11;4.47;;;2.65;;
36855;SDS011;22788;51.434;6.786;2022-07-17T13:30:37;4.63;;;3.08;;
36855;SDS011;22788;51.434;6.786;2022-07-17T13:33:03;4.78;;;2.70;;
36855;SDS011;22788;51.434;6.786;2022-07-17T13:35:29;8.80;;;2.58;;
36855;SDS011;22788;51.434;6.786;2022-07-17T13:37:55;10.57;;;2.67;;
36855;SDS011;22788;51.434;6.786;2022-07-17T13:40:22;8.27;;;3.10;;
36855;SDS011;22788;51.434;6.786;2022-07-17T13:42:48;6.53;;;3.15;;
36855;SDS011;22788;51.434;6.786;2022-07-17T13:45:15;4.13;;;2.78;;
36855;SDS011;22788;51.434;6.786;2022-07-17T13:47:42;9.93;;;2.97;;
36855;SDS011;22788;51.434;6.786;2022-07-17T13:50:08;8.23;;;3.20;;
36855;SDS011;22788;51.434;6.786;2022-07-17T13:52:35;7.68;;;2.90;;
36855;SDS011;22788;51.434;6.786;2022-07-17T13:55:01;6.60;;;2.60;;
36855;SDS011;22788;51.434;6.786;2022-07-17T13:57:28;6.05;;;2.72;;
36855;SDS011;22788;51.434;6.786;2022-07-17T13:59:54;4.85;;;2.67;;
36855;SDS011;22788;51.434;6.786;2022-07-17T14:02:22;6.95;;;3.03;;
36855;SDS011;22788;51.434;6.786;2022-07-17T14:04:48;6.55;;;3.35;;
36855;SDS011;22788;51.434;6.786;2022-07-17T14:07:15;5.38;;;2.95;;
36855;SDS011;22788;51.434;6.786;2022-07-17T14:09:41;9.07;;;3.22;;
36855;SDS011;22788;51.434;6.786;2022-07-17T14:12:07;5.97;;;2.80;;
36855;SDS011;22788;51.434;6.786;2022-07-17T14:14:33;5.15;;;2.92;;
36855;SDS011;22788;51.434;6.786;2022-07-17T14:16:59;7.13;;;3.03;;
36855;SDS011;22788;51.434;6.786;2022-07-17T14:19:27;5.45;;;2.90;;
36855;SDS011;22788;51.434;6.786;2022-07-17T14:21:53;5.55;;;2.70;;
36855;SDS011;22788;51.434;6.786;2022-07-17T14:24:19;7.15;;;3.20;;
36855;SDS011;22788;51.434;6.786;2022-07-17T14:26:45;4.40;;;2.90;;
36855;SDS011;22788;51.434;6.786;2022-07-17T14:29:11;5.18;;;2.75;;
36855;SDS011;22788;51.434;6.786;2022-07-17T14:31:37;3.25;;;2.55;;
36855;SDS011;22788;51.434;6.786;2022-07-17T14:34:03;4.50;;;2.72;;
36855;SDS011;22788;51.434;6.786;2022-07-17T14:36:31;8.30;;;2.83;;
36855;SDS011;22788;51.434;6.786;2022-07-17T14:38:57;5.00;;;2.72;;
36855;SDS011;22788;51.434;6.786;2022-07-17T14:41:23;6.13;;;2.85;;
36855;SDS011;22788;51.434;6.786;2022-07-17T14:43:49;4.47;;;2.88;;
36855;SDS011;22788;51.434;6.786;2022-07-17T14:46:15;4.45;;;2.78;;
36855;SDS011;22788;51.434;6.786;2022-07-17T14:48:41;4.00;;;2.45;;